sensor_id;sensor_type;location;lat;lon;timestamp;P1;durP1;ratioP1;P2;durP2;ratioP2
1390;SDS011;690;51.454;7.194;2024-02-21T00:01:14;27.03;;;11.80;;
1390;SDS011;690;51.454;7.194;2024-02-21T00:03:42;22.80;;;10.30;;
1390;SDS011;690;51.454;7.194;2024-02-21T00:06:08;22.33;;;9.77;;
1390;SDS011;690;51.454;7.194;2024-02-21T00:08:37;19.43;;;10.50;;
1390;SDS011;690;51.454;7.194;2024-02-21T00:11:04;24.97;;;11.43;;
1390;SDS011;690;51.454;7.194;2024-02-21T00:13:30;22.83;;;9.47;;
1390;SDS011;690;51.454;7.194;2024-02-21T00:15:57;25.43;;;10.87;;
1390;SDS011;690;51.454;7.194;2024-02-21T00:18:26;23.17;;;10.27;;
1390;SDS011;690;51.454;7.194;2024-02-21T00:20:53;23.83;;;11.83;;
1390;SDS011;690;51.454;7.194;2024-02-21T00:23:19;25.87;;;12.10;;
1390;SDS011;690;51.454;7.194;2024-02-21T00:25:48;21.07;;;10.80;;
1390;SDS011;690;51.454;7.194;2024-02-21T00:28:15;22.87;;;11.80;;
1390;SDS011;690;51.454;7.194;2024-02-21T00:30:41;23.70;;;12.33;;
1390;SDS011;690;51.454;7.194;2024-02-21T00:33:08;21.50;;;11.17;;
1390;SDS011;690;51.454;7.194;2024-02-21T00:35:35;26.33;;;12.80;;
1390;SDS011;690;51.454;7.194;2024-02-21T00:38:03;27.67;;;11.53;;
1390;SDS011;690;51.454;7.194;2024-02-21T00:40:30;26.90;;;11.40;;
1390;SDS011;690;51.454;7.194;2024-02-21T00:42:58;22.23;;;10.40;;
1390;SDS011;690;51.454;7.194;2024-02-21T00:45:25;23.13;;;10.77;;
1390;SDS011;690;51.454;7.194;2024-02-21T00:47:52;21.73;;;10.73;;
1390;SDS011;690;51.454;7.194;2024-02-21T00:50:19;22.13;;;12.03;;
1390;SDS011;690;51.454;7.194;2024-02-21T00:52:46;27.93;;;11.50;;
1390;SDS011;690;51.454;7.194;2024-02-21T00:55:13;22.67;;;11.70;;
1390;SDS011;690;51.454;7.194;2024-02-21T00:57:40;20.40;;;10.10;;
1390;SDS011;690;51.454;7.194;2024-02-21T01:00:09;24.60;;;10.90;;
1390;SDS011;690;51.454;7.194;2024-02-21T01:02:37;26.30;;;14.30;;
1390;SDS011;690;51.454;7.194;2024-02-21T01:05:04;23.20;;;11.50;;
1390;SDS011;690;51.454;7.194;2024-02-21T01:07:31;23.30;;;11.20;;
1390;SDS011;690;51.454;7.194;2024-02-21T01:09:58;21.50;;;11.40;;
1390;SDS011;690;51.454;7.194;2024-02-21T01:12:25;25.20;;;12.40;;
1390;SDS011;690;51.454;7.194;2024-02-21T01:14:52;22.60;;;11.27;;
1390;SDS011;690;51.454;7.194;2024-02-21T01:17:20;22.20;;;10.70;;
1390;SDS011;690;51.454;7.194;2024-02-21T01:19:47;22.23;;;11.60;;
1390;SDS011;690;51.454;7.194;2024-02-21T01:22:13;22.37;;;11.83;;
1390;SDS011;690;51.454;7.194;2024-02-21T01:24:41;20.53;;;10.70;;
1390;SDS011;690;51.454;7.194;2024-02-21T01:27:08;19.30;;;11.20;;
1390;SDS011;690;51.454;7.194;2024-02-21T01:29:34;25.53;;;10.67;;
1390;SDS011;690;51.454;7.194;2024-02-21T01:32:01;24.90;;;10.93;;
1390;SDS011;690;51.454;7.194;2024-02-21T01:34:30;22.57;;;11.37;;
1390;SDS011;690;51.454;7.194;2024-02-21T01:36:56;24.93;;;10.60;;
1390;SDS011;690;51.454;7.194;2024-02-21T01:39:24;27.20;;;11.00;;
1390;SDS011;690;51.454;7.194;2024-02-21T01:41:51;20.37;;;10.13;;
1390;SDS011;690;51.454;7.194;2024-02-21T01:44:18;20.00;;;10.03;;
1390;SDS011;690;51.454;7.194;2024-02-21T01:46:44;21.47;;;10.50;;
1390;SDS011;690;51.454;7.194;2024-02-21T01:49:11;23.10;;;10.73;;
1390;SDS011;690;51.454;7.194;2024-02-21T01:51:40;24.67;;;12.60;;
1390;SDS011;690;51.454;7.194;2024-02-21T01:54:07;32.97;;;12.23;;
1390;SDS011;690;51.454;7.194;2024-02-21T01:56:34;24.00;;;10.57;;
1390;SDS011;690;51.454;7.194;2024-02-21T01:59:01;24.40;;;11.37;;
1390;SDS011;690;51.454;7.194;2024-02-21T02:01:29;23.70;;;12.90;;
1390;SDS011;690;51.454;7.194;2024-02-21T02:03:56;22.77;;;11.13;;
1390;SDS011;690;51.454;7.194;2024-02-21T02:06:25;21.00;;;11.30;;
1390;SDS011;690;51.454;7.194;2024-02-21T02:08:53;20.40;;;10.00;;
1390;SDS011;690;51.454;7.194;2024-02-21T02:11:20;30.00;;;11.53;;
1390;SDS011;690;51.454;7.194;2024-02-21T02:13:47;23.83;;;10.73;;
1390;SDS011;690;51.454;7.194;2024-02-21T02:16:14;21.50;;;11.00;;
1390;SDS011;690;51.454;7.194;2024-02-21T02:18:41;20.17;;;9.90;;
1390;SDS011;690;51.454;7.194;2024-02-21T02:21:10;26.50;;;11.00;;
1390;SDS011;690;51.454;7.194;2024-02-21T02:23:42;21.60;;;11.23;;
1390;SDS011;690;51.454;7.194;2024-02-21T02:26:09;18.43;;;9.37;;
1390;SDS011;690;51.454;7.194;2024-02-21T02:28:36;17.93;;;10.63;;
1390;SDS011;690;51.454;7.194;2024-02-21T02:31:02;25.40;;;11.10;;
1390;SDS011;690;51.454;7.194;2024-02-21T02:33:29;30.10;;;10.37;;
1390;SDS011;690;51.454;7.194;2024-02-21T02:35:56;19.30;;;9.80;;
1390;SDS011;690;51.454;7.194;2024-02-21T02:38:24;18.00;;;10.57;;
1390;SDS011;690;51.454;7.194;2024-02-21T02:40:52;19.83;;;10.73;;
1390;SDS011;690;51.454;7.194;2024-02-21T02:43:19;25.80;;;11.30;;
1390;SDS011;690;51.454;7.194;2024-02-21T02:45:46;19.67;;;10.10;;
1390;SDS011;690;51.454;7.194;2024-02-21T02:48:13;17.57;;;9.57;;
1390;SDS011;690;51.454;7.194;2024-02-21T02:50:40;24.43;;;11.07;;
1390;SDS011;690;51.454;7.194;2024-02-21T02:53:07;28.40;;;11.30;;
1390;SDS011;690;51.454;7.194;2024-02-21T02:55:34;23.53;;;10.27;;
1390;SDS011;690;51.454;7.194;2024-02-21T02:58:03;24.50;;;11.20;;
1390;SDS011;690;51.454;7.194;2024-02-21T03:00:30;17.50;;;10.27;;
1390;SDS011;690;51.454;7.194;2024-02-21T03:03:01;16.90;;;10.33;;
1390;SDS011;690;51.454;7.194;2024-02-21T03:05:29;23.60;;;10.80;;
1390;SDS011;690;51.454;7.194;2024-02-21T03:07:56;20.73;;;10.37;;
1390;SDS011;690;51.454;7.194;2024-02-21T03:10:23;21.33;;;10.80;;
1390;SDS011;690;51.454;7.194;2024-02-21T03:12:50;19.60;;;9.50;;
1390;SDS011;690;51.454;7.194;2024-02-21T03:15:20;18.90;;;9.23;;
1390;SDS011;690;51.454;7.194;2024-02-21T03:17:47;20.93;;;9.77;;
1390;SDS011;690;51.454;7.194;2024-02-21T03:20:15;24.73;;;9.67;;
1390;SDS011;690;51.454;7.194;2024-02-21T03:22:42;22.93;;;12.30;;
1390;SDS011;690;51.454;7.194;2024-02-21T03:25:09;20.80;;;10.73;;
1390;SDS011;690;51.454;7.194;2024-02-21T03:27:37;23.07;;;11.07;;
1390;SDS011;690;51.454;7.194;2024-02-21T03:30:05;20.23;;;11.53;;
1390;SDS011;690;51.454;7.194;2024-02-21T03:32:34;27.73;;;10.23;;
1390;SDS011;690;51.454;7.194;2024-02-21T03:35:01;25.40;;;11.50;;
1390;SDS011;690;51.454;7.194;2024-02-21T03:37:28;14.10;;;9.17;;
1390;SDS011;690;51.454;7.194;2024-02-21T03:39:55;22.63;;;9.37;;
1390;SDS011;690;51.454;7.194;2024-02-21T03:42:21;23.40;;;10.33;;
1390;SDS011;690;51.454;7.194;2024-02-21T03:44:48;19.83;;;9.50;;
1390;SDS011;690;51.454;7.194;2024-02-21T03:47:15;23.57;;;10.23;;
1390;SDS011;690;51.454;7.194;2024-02-21T03:49:44;22.03;;;10.03;;
1390;SDS011;690;51.454;7.194;2024-02-21T03:52:11;20.13;;;9.53;;
1390;SDS011;690;51.454;7.194;2024-02-21T03:54:38;18.30;;;9.13;;
1390;SDS011;690;51.454;7.194;2024-02-21T03:57:05;17.03;;;9.83;;
1390;SDS011;690;51.454;7.194;2024-02-21T03:59:32;23.30;;;9.40;;
1390;SDS011;690;51.454;7.194;2024-02-21T04:01:59;21.63;;;10.70;;
1390;SDS011;690;51.454;7.194;2024-02-21T04:04:26;24.60;;;11.10;;
1390;SDS011;690;51.454;7.194;2024-02-21T04:06:54;20.17;;;10.17;;
1390;SDS011;690;51.454;7.194;2024-02-21T04:09:21;22.77;;;10.77;;
1390;SDS011;690;51.454;7.194;2024-02-21T04:11:48;18.00;;;9.83;;
1390;SDS011;690;51.454;7.194;2024-02-21T04:14:15;25.17;;;9.20;;
1390;SDS011;690;51.454;7.194;2024-02-21T04:16:42;18.17;;;9.10;;
1390;SDS011;690;51.454;7.194;2024-02-21T04:19:09;20.60;;;9.93;;
1390;SDS011;690;51.454;7.194;2024-02-21T04:21:36;19.17;;;9.83;;
1390;SDS011;690;51.454;7.194;2024-02-21T04:24:04;23.43;;;9.90;;
1390;SDS011;690;51.454;7.194;2024-02-21T04:26:32;21.27;;;9.47;;
1390;SDS011;690;51.454;7.194;2024-02-21T04:28:59;18.80;;;8.70;;
1390;SDS011;690;51.454;7.194;2024-02-21T04:31:29;20.90;;;9.43;;
1390;SDS011;690;51.454;7.194;2024-02-21T04:33:58;16.80;;;8.80;;
1390;SDS011;690;51.454;7.194;2024-02-21T04:36:25;18.13;;;8.60;;
1390;SDS011;690;51.454;7.194;2024-02-21T04:38:51;24.20;;;9.90;;
1390;SDS011;690;51.454;7.194;2024-02-21T04:41:20;22.93;;;9.17;;
1390;SDS011;690;51.454;7.194;2024-02-21T04:43:47;18.07;;;10.43;;
1390;SDS011;690;51.454;7.194;2024-02-21T04:46:14;18.97;;;9.00;;
1390;SDS011;690;51.454;7.194;2024-02-21T04:48:41;16.43;;;8.20;;
1390;SDS011;690;51.454;7.194;2024-02-21T04:51:08;19.00;;;9.20;;
1390;SDS011;690;51.454;7.194;2024-02-21T04:53:35;17.20;;;8.33;;
1390;SDS011;690;51.454;7.194;2024-02-21T04:56:02;16.90;;;9.00;;
1390;SDS011;690;51.454;7.194;2024-02-21T04:58:31;16.63;;;8.40;;
1390;SDS011;690;51.454;7.194;2024-02-21T05:00:58;18.47;;;8.90;;
1390;SDS011;690;51.454;7.194;2024-02-21T05:03:24;16.80;;;8.90;;
1390;SDS011;690;51.454;7.194;2024-02-21T05:05:51;20.97;;;7.97;;
1390;SDS011;690;51.454;7.194;2024-02-21T05:08:18;22.13;;;7.73;;
1390;SDS011;690;51.454;7.194;2024-02-21T05:10:45;17.00;;;6.73;;
1390;SDS011;690;51.454;7.194;2024-02-21T05:13:12;15.70;;;9.07;;
1390;SDS011;690;51.454;7.194;2024-02-21T05:15:40;14.33;;;7.33;;
1390;SDS011;690;51.454;7.194;2024-02-21T05:18:07;15.20;;;7.43;;
1390;SDS011;690;51.454;7.194;2024-02-21T05:20:34;11.30;;;7.50;;
1390;SDS011;690;51.454;7.194;2024-02-21T05:23:01;10.50;;;6.87;;
1390;SDS011;690;51.454;7.194;2024-02-21T05:25:28;16.47;;;6.83;;
1390;SDS011;690;51.454;7.194;2024-02-21T05:27:54;18.53;;;7.23;;
1390;SDS011;690;51.454;7.194;2024-02-21T05:30:26;10.23;;;6.83;;
1390;SDS011;690;51.454;7.194;2024-02-21T05:32:54;14.00;;;6.73;;
1390;SDS011;690;51.454;7.194;2024-02-21T05:35:24;10.50;;;6.70;;
1390;SDS011;690;51.454;7.194;2024-02-21T05:37:52;10.60;;;6.90;;
1390;SDS011;690;51.454;7.194;2024-02-21T05:40:19;10.43;;;6.53;;
1390;SDS011;690;51.454;7.194;2024-02-21T05:42:46;13.77;;;6.93;;
1390;SDS011;690;51.454;7.194;2024-02-21T05:45:13;15.13;;;7.10;;
1390;SDS011;690;51.454;7.194;2024-02-21T05:47:40;15.43;;;7.43;;
1390;SDS011;690;51.454;7.194;2024-02-21T05:50:09;11.00;;;6.30;;
1390;SDS011;690;51.454;7.194;2024-02-21T05:52:36;13.80;;;6.10;;
1390;SDS011;690;51.454;7.194;2024-02-21T05:55:03;18.63;;;7.27;;
1390;SDS011;690;51.454;7.194;2024-02-21T05:57:32;15.40;;;7.10;;
1390;SDS011;690;51.454;7.194;2024-02-21T05:59:59;12.20;;;6.50;;
1390;SDS011;690;51.454;7.194;2024-02-21T06:02:26;11.60;;;6.07;;
1390;SDS011;690;51.454;7.194;2024-02-21T06:04:53;9.83;;;6.10;;
1390;SDS011;690;51.454;7.194;2024-02-21T06:07:22;14.27;;;6.70;;
1390;SDS011;690;51.454;7.194;2024-02-21T06:09:49;10.70;;;6.10;;
1390;SDS011;690;51.454;7.194;2024-02-21T06:12:15;12.63;;;6.07;;
1390;SDS011;690;51.454;7.194;2024-02-21T06:14:42;14.30;;;7.00;;
1390;SDS011;690;51.454;7.194;2024-02-21T06:17:09;9.83;;;5.50;;
1390;SDS011;690;51.454;7.194;2024-02-21T06:19:39;12.97;;;6.50;;
1390;SDS011;690;51.454;7.194;2024-02-21T06:22:06;10.80;;;5.90;;
1390;SDS011;690;51.454;7.194;2024-02-21T06:24:35;12.00;;;5.33;;
1390;SDS011;690;51.454;7.194;2024-02-21T06:27:03;9.87;;;5.50;;
1390;SDS011;690;51.454;7.194;2024-02-21T06:29:31;8.83;;;6.37;;
1390;SDS011;690;51.454;7.194;2024-02-21T06:31:58;11.57;;;6.13;;
1390;SDS011;690;51.454;7.194;2024-02-21T06:34:26;10.13;;;5.80;;
1390;SDS011;690;51.454;7.194;2024-02-21T06:36:52;11.87;;;5.67;;
1390;SDS011;690;51.454;7.194;2024-02-21T06:39:19;16.00;;;5.50;;
1390;SDS011;690;51.454;7.194;2024-02-21T06:41:49;7.13;;;4.77;;
1390;SDS011;690;51.454;7.194;2024-02-21T06:44:17;15.60;;;5.00;;
1390;SDS011;690;51.454;7.194;2024-02-21T06:46:45;9.00;;;4.87;;
1390;SDS011;690;51.454;7.194;2024-02-21T06:49:12;8.37;;;4.43;;
1390;SDS011;690;51.454;7.194;2024-02-21T06:51:41;10.20;;;4.90;;
1390;SDS011;690;51.454;7.194;2024-02-21T06:54:08;9.40;;;5.00;;
1390;SDS011;690;51.454;7.194;2024-02-21T06:56:35;7.80;;;4.60;;
1390;SDS011;690;51.454;7.194;2024-02-21T06:59:04;8.47;;;5.23;;
1390;SDS011;690;51.454;7.194;2024-02-21T07:01:31;11.40;;;4.77;;
1390;SDS011;690;51.454;7.194;2024-02-21T07:03:58;10.47;;;5.10;;
1390;SDS011;690;51.454;7.194;2024-02-21T07:06:25;7.67;;;4.10;;
1390;SDS011;690;51.454;7.194;2024-02-21T07:08:52;10.33;;;4.80;;
1390;SDS011;690;51.454;7.194;2024-02-21T07:11:18;8.97;;;4.90;;
1390;SDS011;690;51.454;7.194;2024-02-21T07:13:45;7.00;;;4.47;;
1390;SDS011;690;51.454;7.194;2024-02-21T07:16:14;11.47;;;5.07;;
1390;SDS011;690;51.454;7.194;2024-02-21T07:18:41;8.07;;;5.13;;
1390;SDS011;690;51.454;7.194;2024-02-21T07:21:08;15.63;;;5.00;;
1390;SDS011;690;51.454;7.194;2024-02-21T07:23:34;11.13;;;5.40;;
1390;SDS011;690;51.454;7.194;2024-02-21T07:26:01;11.63;;;6.60;;
1390;SDS011;690;51.454;7.194;2024-02-21T07:28:29;7.33;;;4.93;;
1390;SDS011;690;51.454;7.194;2024-02-21T07:30:56;11.50;;;4.83;;
1390;SDS011;690;51.454;7.194;2024-02-21T07:33:26;7.77;;;4.90;;
1390;SDS011;690;51.454;7.194;2024-02-21T07:35:53;13.13;;;5.57;;
1390;SDS011;690;51.454;7.194;2024-02-21T07:38:19;10.17;;;5.53;;
1390;SDS011;690;51.454;7.194;2024-02-21T07:40:47;10.60;;;5.13;;
1390;SDS011;690;51.454;7.194;2024-02-21T07:43:14;14.10;;;5.40;;
1390;SDS011;690;51.454;7.194;2024-02-21T07:45:41;12.10;;;5.20;;
1390;SDS011;690;51.454;7.194;2024-02-21T07:48:08;11.00;;;5.20;;
1390;SDS011;690;51.454;7.194;2024-02-21T07:50:36;8.70;;;4.83;;
1390;SDS011;690;51.454;7.194;2024-02-21T07:53:03;14.23;;;5.90;;
1390;SDS011;690;51.454;7.194;2024-02-21T07:55:30;9.40;;;4.97;;
1390;SDS011;690;51.454;7.194;2024-02-21T07:57:57;9.33;;;5.70;;
1390;SDS011;690;51.454;7.194;2024-02-21T08:00:24;7.10;;;4.40;;
1390;SDS011;690;51.454;7.194;2024-02-21T08:02:51;10.03;;;6.27;;
1390;SDS011;690;51.454;7.194;2024-02-21T08:05:21;10.90;;;5.10;;
1390;SDS011;690;51.454;7.194;2024-02-21T08:07:49;8.27;;;5.00;;
1390;SDS011;690;51.454;7.194;2024-02-21T08:10:16;11.83;;;4.90;;
1390;SDS011;690;51.454;7.194;2024-02-21T08:12:43;14.73;;;5.77;;
1390;SDS011;690;51.454;7.194;2024-02-21T08:15:10;8.23;;;5.70;;
1390;SDS011;690;51.454;7.194;2024-02-21T08:17:37;12.30;;;4.73;;
1390;SDS011;690;51.454;7.194;2024-02-21T08:20:04;11.03;;;5.20;;
1390;SDS011;690;51.454;7.194;2024-02-21T08:22:32;10.87;;;5.40;;
1390;SDS011;690;51.454;7.194;2024-02-21T08:25:00;11.73;;;4.87;;
1390;SDS011;690;51.454;7.194;2024-02-21T08:27:30;10.07;;;4.90;;
1390;SDS011;690;51.454;7.194;2024-02-21T08:29:57;7.60;;;4.60;;
1390;SDS011;690;51.454;7.194;2024-02-21T08:32:24;11.40;;;5.30;;
1390;SDS011;690;51.454;7.194;2024-02-21T08:34:51;7.10;;;4.60;;
1390;SDS011;690;51.454;7.194;2024-02-21T08:37:18;8.30;;;4.23;;
1390;SDS011;690;51.454;7.194;2024-02-21T08:39:47;9.47;;;4.90;;
1390;SDS011;690;51.454;7.194;2024-02-21T08:42:16;10.00;;;5.20;;
1390;SDS011;690;51.454;7.194;2024-02-21T08:44:42;13.90;;;4.27;;
1390;SDS011;690;51.454;7.194;2024-02-21T08:47:09;9.43;;;4.47;;
1390;SDS011;690;51.454;7.194;2024-02-21T08:49:37;8.87;;;4.47;;
1390;SDS011;690;51.454;7.194;2024-02-21T08:52:04;8.87;;;4.07;;
1390;SDS011;690;51.454;7.194;2024-02-21T08:54:31;8.03;;;4.70;;
1390;SDS011;690;51.454;7.194;2024-02-21T08:56:59;11.17;;;4.00;;
1390;SDS011;690;51.454;7.194;2024-02-21T08:59:27;8.47;;;4.17;;
1390;SDS011;690;51.454;7.194;2024-02-21T09:01:54;8.60;;;4.00;;
1390;SDS011;690;51.454;7.194;2024-02-21T09:04:21;10.20;;;4.63;;
1390;SDS011;690;51.454;7.194;2024-02-21T09:06:47;6.87;;;3.60;;
1390;SDS011;690;51.454;7.194;2024-02-21T09:09:14;7.63;;;3.60;;
1390;SDS011;690;51.454;7.194;2024-02-21T09:11:42;7.30;;;3.80;;
1390;SDS011;690;51.454;7.194;2024-02-21T09:14:09;7.07;;;3.97;;
1390;SDS011;690;51.454;7.194;2024-02-21T09:16:37;7.93;;;4.80;;
1390;SDS011;690;51.454;7.194;2024-02-21T09:19:04;9.73;;;4.70;;
1390;SDS011;690;51.454;7.194;2024-02-21T09:21:32;5.57;;;4.50;;
1390;SDS011;690;51.454;7.194;2024-02-21T09:23:59;9.93;;;4.30;;
1390;SDS011;690;51.454;7.194;2024-02-21T09:26:26;11.97;;;4.50;;
1390;SDS011;690;51.454;7.194;2024-02-21T09:28:53;12.47;;;5.20;;
1390;SDS011;690;51.454;7.194;2024-02-21T09:31:20;9.83;;;5.43;;
1390;SDS011;690;51.454;7.194;2024-02-21T09:33:48;11.70;;;5.10;;
1390;SDS011;690;51.454;7.194;2024-02-21T09:36:15;13.33;;;4.70;;
1390;SDS011;690;51.454;7.194;2024-02-21T09:38:42;11.97;;;5.30;;
1390;SDS011;690;51.454;7.194;2024-02-21T09:41:11;7.43;;;4.30;;
1390;SDS011;690;51.454;7.194;2024-02-21T09:43:42;21.77;;;6.00;;
1390;SDS011;690;51.454;7.194;2024-02-21T09:46:12;14.40;;;5.60;;
1390;SDS011;690;51.454;7.194;2024-02-21T09:48:45;7.33;;;4.87;;
1390;SDS011;690;51.454;7.194;2024-02-21T09:51:30;9.30;;;6.17;;
1390;SDS011;690;51.454;7.194;2024-02-21T09:53:58;6.87;;;4.67;;
1390;SDS011;690;51.454;7.194;2024-02-21T09:56:26;13.23;;;5.40;;
1390;SDS011;690;51.454;7.194;2024-02-21T09:58:53;17.80;;;5.07;;
1390;SDS011;690;51.454;7.194;2024-02-21T10:01:21;13.20;;;5.17;;
1390;SDS011;690;51.454;7.194;2024-02-21T10:03:48;9.87;;;6.10;;
1390;SDS011;690;51.454;7.194;2024-02-21T10:06:16;7.83;;;5.13;;
1390;SDS011;690;51.454;7.194;2024-02-21T10:08:43;15.70;;;6.20;;
1390;SDS011;690;51.454;7.194;2024-02-21T10:11:09;15.60;;;6.10;;
1390;SDS011;690;51.454;7.194;2024-02-21T10:13:36;11.33;;;5.63;;
1390;SDS011;690;51.454;7.194;2024-02-21T10:16:04;17.27;;;5.97;;
1390;SDS011;690;51.454;7.194;2024-02-21T10:18:32;12.90;;;6.70;;
1390;SDS011;690;51.454;7.194;2024-02-21T10:21:01;12.93;;;6.30;;
1390;SDS011;690;51.454;7.194;2024-02-21T10:23:30;19.80;;;8.20;;
1390;SDS011;690;51.454;7.194;2024-02-21T10:26:07;13.30;;;6.37;;
1390;SDS011;690;51.454;7.194;2024-02-21T10:28:35;14.70;;;6.40;;
1390;SDS011;690;51.454;7.194;2024-02-21T10:31:03;14.60;;;7.03;;
1390;SDS011;690;51.454;7.194;2024-02-21T10:33:30;11.63;;;6.63;;
1390;SDS011;690;51.454;7.194;2024-02-21T10:36:05;10.37;;;7.10;;
1390;SDS011;690;51.454;7.194;2024-02-21T10:38:35;12.53;;;7.87;;
1390;SDS011;690;51.454;7.194;2024-02-21T10:41:03;13.47;;;8.13;;
1390;SDS011;690;51.454;7.194;2024-02-21T10:43:32;9.67;;;6.27;;
1390;SDS011;690;51.454;7.194;2024-02-21T10:46:04;10.63;;;5.63;;
1390;SDS011;690;51.454;7.194;2024-02-21T10:48:33;12.00;;;6.80;;
1390;SDS011;690;51.454;7.194;2024-02-21T10:51:09;7.83;;;5.60;;
1390;SDS011;690;51.454;7.194;2024-02-21T10:53:44;7.17;;;4.60;;
1390;SDS011;690;51.454;7.194;2024-02-21T10:56:16;6.37;;;4.77;;
1390;SDS011;690;51.454;7.194;2024-02-21T10:58:52;9.50;;;5.20;;
1390;SDS011;690;51.454;7.194;2024-02-21T11:01:20;6.13;;;3.77;;
1390;SDS011;690;51.454;7.194;2024-02-21T11:03:49;6.00;;;4.20;;
1390;SDS011;690;51.454;7.194;2024-02-21T11:06:19;10.80;;;4.37;;
1390;SDS011;690;51.454;7.194;2024-02-21T11:08:48;6.73;;;3.90;;
1390;SDS011;690;51.454;7.194;2024-02-21T11:11:27;6.90;;;4.00;;
1390;SDS011;690;51.454;7.194;2024-02-21T11:14:03;5.70;;;4.50;;
1390;SDS011;690;51.454;7.194;2024-02-21T11:16:34;6.63;;;4.17;;
1390;SDS011;690;51.454;7.194;2024-02-21T11:19:06;8.20;;;3.67;;
1390;SDS011;690;51.454;7.194;2024-02-21T11:21:34;7.20;;;4.77;;
1390;SDS011;690;51.454;7.194;2024-02-21T11:24:02;5.03;;;4.27;;
1390;SDS011;690;51.454;7.194;2024-02-21T11:26:30;6.90;;;4.03;;
1390;SDS011;690;51.454;7.194;2024-02-21T11:28:58;4.57;;;4.13;;
1390;SDS011;690;51.454;7.194;2024-02-21T11:31:38;7.17;;;4.30;;
1390;SDS011;690;51.454;7.194;2024-02-21T11:34:08;7.13;;;4.27;;
1390;SDS011;690;51.454;7.194;2024-02-21T11:36:35;11.37;;;4.67;;
1390;SDS011;690;51.454;7.194;2024-02-21T11:39:13;8.00;;;4.10;;
1390;SDS011;690;51.454;7.194;2024-02-21T11:41:46;10.27;;;5.13;;
1390;SDS011;690;51.454;7.194;2024-02-21T11:44:13;7.13;;;4.57;;
1390;SDS011;690;51.454;7.194;2024-02-21T11:46:40;6.40;;;4.57;;
1390;SDS011;690;51.454;7.194;2024-02-21T11:49:07;5.23;;;4.30;;
1390;SDS011;690;51.454;7.194;2024-02-21T11:51:34;11.50;;;5.70;;
1390;SDS011;690;51.454;7.194;2024-02-21T11:54:01;7.87;;;4.70;;
1390;SDS011;690;51.454;7.194;2024-02-21T11:56:31;8.93;;;5.07;;
1390;SDS011;690;51.454;7.194;2024-02-21T11:58:59;7.10;;;4.70;;
1390;SDS011;690;51.454;7.194;2024-02-21T12:01:26;7.07;;;5.10;;
1390;SDS011;690;51.454;7.194;2024-02-21T12:03:53;5.93;;;4.10;;
1390;SDS011;690;51.454;7.194;2024-02-21T12:06:24;6.87;;;4.50;;
1390;SDS011;690;51.454;7.194;2024-02-21T12:08:50;8.93;;;5.10;;
1390;SDS011;690;51.454;7.194;2024-02-21T12:11:21;8.83;;;4.57;;
1390;SDS011;690;51.454;7.194;2024-02-21T12:13:57;6.87;;;4.00;;
1390;SDS011;690;51.454;7.194;2024-02-21T12:16:26;7.73;;;4.30;;
1390;SDS011;690;51.454;7.194;2024-02-21T12:18:54;8.73;;;4.87;;
1390;SDS011;690;51.454;7.194;2024-02-21T12:21:23;9.80;;;4.50;;
1390;SDS011;690;51.454;7.194;2024-02-21T12:23:53;9.30;;;5.23;;
1390;SDS011;690;51.454;7.194;2024-02-21T12:26:20;7.90;;;5.07;;
1390;SDS011;690;51.454;7.194;2024-02-21T12:28:48;6.00;;;3.90;;
1390;SDS011;690;51.454;7.194;2024-02-21T12:31:15;5.20;;;4.10;;
1390;SDS011;690;51.454;7.194;2024-02-21T12:33:42;8.40;;;4.10;;
1390;SDS011;690;51.454;7.194;2024-02-21T12:36:09;5.80;;;3.63;;
1390;SDS011;690;51.454;7.194;2024-02-21T12:38:36;5.90;;;4.20;;
1390;SDS011;690;51.454;7.194;2024-02-21T12:41:03;6.17;;;3.60;;
1390;SDS011;690;51.454;7.194;2024-02-21T12:43:30;9.13;;;3.77;;
1390;SDS011;690;51.454;7.194;2024-02-21T12:45:59;6.33;;;3.10;;
1390;SDS011;690;51.454;7.194;2024-02-21T12:48:26;7.33;;;3.33;;
1390;SDS011;690;51.454;7.194;2024-02-21T12:50:54;6.37;;;3.17;;
1390;SDS011;690;51.454;7.194;2024-02-21T12:53:20;6.47;;;2.87;;
1390;SDS011;690;51.454;7.194;2024-02-21T12:55:48;5.23;;;2.70;;
1390;SDS011;690;51.454;7.194;2024-02-21T12:58:15;6.77;;;2.50;;
1390;SDS011;690;51.454;7.194;2024-02-21T13:00:42;4.97;;;2.60;;
1390;SDS011;690;51.454;7.194;2024-02-21T13:03:11;6.70;;;3.20;;
1390;SDS011;690;51.454;7.194;2024-02-21T13:05:37;7.37;;;3.20;;
1390;SDS011;690;51.454;7.194;2024-02-21T13:08:05;7.73;;;2.30;;
1390;SDS011;690;51.454;7.194;2024-02-21T13:10:32;7.00;;;3.20;;
1390;SDS011;690;51.454;7.194;2024-02-21T13:13:00;4.13;;;2.70;;
1390;SDS011;690;51.454;7.194;2024-02-21T13:15:27;6.70;;;3.00;;
1390;SDS011;690;51.454;7.194;2024-02-21T13:17:54;5.67;;;2.63;;
1390;SDS011;690;51.454;7.194;2024-02-21T13:20:23;6.80;;;2.43;;
1390;SDS011;690;51.454;7.194;2024-02-21T13:22:50;9.07;;;3.20;;
1390;SDS011;690;51.454;7.194;2024-02-21T13:25:17;7.03;;;3.50;;
1390;SDS011;690;51.454;7.194;2024-02-21T13:27:46;9.30;;;3.70;;
1390;SDS011;690;51.454;7.194;2024-02-21T13:30:13;7.20;;;2.60;;
1390;SDS011;690;51.454;7.194;2024-02-21T13:32:41;5.63;;;2.33;;
1390;SDS011;690;51.454;7.194;2024-02-21T13:35:11;6.63;;;2.63;;
1390;SDS011;690;51.454;7.194;2024-02-21T13:37:39;7.23;;;3.53;;
1390;SDS011;690;51.454;7.194;2024-02-21T13:40:11;4.80;;;2.37;;
1390;SDS011;690;51.454;7.194;2024-02-21T13:42:38;6.70;;;2.90;;
1390;SDS011;690;51.454;7.194;2024-02-21T13:45:06;5.70;;;2.77;;
1390;SDS011;690;51.454;7.194;2024-02-21T13:47:33;6.87;;;2.67;;
1390;SDS011;690;51.454;7.194;2024-02-21T13:50:01;8.67;;;3.00;;
1390;SDS011;690;51.454;7.194;2024-02-21T13:52:29;7.37;;;2.70;;
1390;SDS011;690;51.454;7.194;2024-02-21T13:54:57;4.50;;;2.00;;
1390;SDS011;690;51.454;7.194;2024-02-21T13:57:24;6.90;;;2.60;;
1390;SDS011;690;51.454;7.194;2024-02-21T13:59:51;5.37;;;3.40;;
1390;SDS011;690;51.454;7.194;2024-02-21T14:02:18;8.23;;;2.27;;
1390;SDS011;690;51.454;7.194;2024-02-21T14:04:46;7.00;;;2.90;;
1390;SDS011;690;51.454;7.194;2024-02-21T14:07:13;7.83;;;3.10;;
1390;SDS011;690;51.454;7.194;2024-02-21T14:09:40;9.40;;;2.80;;
1390;SDS011;690;51.454;7.194;2024-02-21T14:12:08;11.77;;;3.17;;
1390;SDS011;690;51.454;7.194;2024-02-21T14:14:35;4.80;;;2.60;;
1390;SDS011;690;51.454;7.194;2024-02-21T14:17:02;8.40;;;4.03;;
1390;SDS011;690;51.454;7.194;2024-02-21T14:19:29;6.57;;;3.20;;
1390;SDS011;690;51.454;7.194;2024-02-21T14:21:56;10.70;;;3.10;;
1390;SDS011;690;51.454;7.194;2024-02-21T14:24:23;8.17;;;3.83;;
1390;SDS011;690;51.454;7.194;2024-02-21T14:26:50;6.47;;;3.20;;
1390;SDS011;690;51.454;7.194;2024-02-21T14:29:18;3.97;;;2.67;;
1390;SDS011;690;51.454;7.194;2024-02-21T14:31:46;5.10;;;2.80;;
1390;SDS011;690;51.454;7.194;2024-02-21T14:34:12;4.20;;;3.03;;
1390;SDS011;690;51.454;7.194;2024-02-21T14:36:39;8.07;;;3.27;;
1390;SDS011;690;51.454;7.194;2024-02-21T14:39:06;5.17;;;2.80;;
1390;SDS011;690;51.454;7.194;2024-02-21T14:41:33;7.70;;;2.63;;
1390;SDS011;690;51.454;7.194;2024-02-21T14:44:01;5.63;;;2.90;;
1390;SDS011;690;51.454;7.194;2024-02-21T14:46:30;5.43;;;2.77;;
1390;SDS011;690;51.454;7.194;2024-02-21T14:48:56;5.07;;;2.80;;
1390;SDS011;690;51.454;7.194;2024-02-21T14:51:23;9.67;;;2.30;;
1390;SDS011;690;51.454;7.194;2024-02-21T14:53:50;6.80;;;2.67;;
1390;SDS011;690;51.454;7.194;2024-02-21T14:56:17;5.73;;;3.00;;
1390;SDS011;690;51.454;7.194;2024-02-21T14:58:43;4.53;;;2.20;;
1390;SDS011;690;51.454;7.194;2024-02-21T15:01:12;6.50;;;2.80;;
1390;SDS011;690;51.454;7.194;2024-02-21T15:03:41;6.47;;;2.70;;
1390;SDS011;690;51.454;7.194;2024-02-21T15:06:08;6.93;;;2.70;;
1390;SDS011;690;51.454;7.194;2024-02-21T15:08:37;6.10;;;3.13;;
1390;SDS011;690;51.454;7.194;2024-02-21T15:11:03;3.60;;;2.60;;
1390;SDS011;690;51.454;7.194;2024-02-21T15:13:31;8.20;;;3.03;;
1390;SDS011;690;51.454;7.194;2024-02-21T15:15:57;7.03;;;2.60;;
1390;SDS011;690;51.454;7.194;2024-02-21T15:18:24;5.20;;;2.53;;
1390;SDS011;690;51.454;7.194;2024-02-21T15:20:53;6.07;;;2.50;;